sensor_id;sensor_type;location;lat;lon;timestamp;temperature;humidity
17697;DHT22;8967;47.984;7.842;2023-07-13T00:01:52;23.30;89.40
17697;DHT22;8967;47.984;7.842;2023-07-13T00:04:21;23.20;87.40
17697;DHT22;8967;47.984;7.842;2023-07-13T00:06:48;23.20;86.20
17697;DHT22;8967;47.984;7.842;2023-07-13T00:09:17;23.20;84.60
17697;DHT22;8967;47.984;7.842;2023-07-13T00:11:45;23.20;84.20
17697;DHT22;8967;47.984;7.842;2023-07-13T00:14:14;23.10;83.10
17697;DHT22;8967;47.984;7.842;2023-07-13T00:16:42;23.10;82.20
17697;DHT22;8967;47.984;7.842;2023-07-13T00:19:09;23.10;81.70
17697;DHT22;8967;47.984;7.842;2023-07-13T00:21:37;23.10;80.30
17697;DHT22;8967;47.984;7.842;2023-07-13T00:24:05;23.00;78.70
17697;DHT22;8967;47.984;7.842;2023-07-13T00:26:32;23.00;78.10
17697;DHT22;8967;47.984;7.842;2023-07-13T00:28:59;23.00;78.30
17697;DHT22;8967;47.984;7.842;2023-07-13T00:31:30;23.00;77.60
17697;DHT22;8967;47.984;7.842;2023-07-13T00:33:57;23.00;78.00
17697;DHT22;8967;47.984;7.842;2023-07-13T00:36:29;23.00;77.70
17697;DHT22;8967;47.984;7.842;2023-07-13T00:38:58;23.00;77.80
17697;DHT22;8967;47.984;7.842;2023-07-13T00:41:25;23.00;77.70
17697;DHT22;8967;47.984;7.842;2023-07-13T00:43:52;23.00;78.00
17697;DHT22;8967;47.984;7.842;2023-07-13T00:46:25;23.10;79.30
17697;DHT22;8967;47.984;7.842;2023-07-13T00:48:54;23.00;81.20
17697;DHT22;8967;47.984;7.842;2023-07-13T00:51:27;23.10;82.70
17697;DHT22;8967;47.984;7.842;2023-07-13T00:53:58;23.00;83.20
17697;DHT22;8967;47.984;7.842;2023-07-13T00:56:26;23.00;83.80
17697;DHT22;8967;47.984;7.842;2023-07-13T00:58:57;23.00;84.40
17697;DHT22;8967;47.984;7.842;2023-07-13T01:01:24;23.00;84.60
17697;DHT22;8967;47.984;7.842;2023-07-13T01:03:52;23.00;84.90
17697;DHT22;8967;47.984;7.842;2023-07-13T01:06:19;23.00;85.20
17697;DHT22;8967;47.984;7.842;2023-07-13T01:08:46;23.00;85.20
17697;DHT22;8967;47.984;7.842;2023-07-13T01:11:18;22.90;85.70
17697;DHT22;8967;47.984;7.842;2023-07-13T01:13:45;22.90;85.90
17697;DHT22;8967;47.984;7.842;2023-07-13T01:16:18;22.90;86.10
17697;DHT22;8967;47.984;7.842;2023-07-13T01:18:48;22.90;86.20
17697;DHT22;8967;47.984;7.842;2023-07-13T01:21:18;22.90;86.20
17697;DHT22;8967;47.984;7.842;2023-07-13T01:23:45;22.80;86.10
17697;DHT22;8967;47.984;7.842;2023-07-13T01:26:13;22.80;85.60
17697;DHT22;8967;47.984;7.842;2023-07-13T01:28:40;22.80;85.60
17697;DHT22;8967;47.984;7.842;2023-07-13T01:31:07;22.70;85.10
17697;DHT22;8967;47.984;7.842;2023-07-13T01:33:37;22.80;85.20
17697;DHT22;8967;47.984;7.842;2023-07-13T01:36:07;22.70;84.40
17697;DHT22;8967;47.984;7.842;2023-07-13T01:38:36;22.60;83.90
17697;DHT22;8967;47.984;7.842;2023-07-13T01:41:07;22.60;84.60
17697;DHT22;8967;47.984;7.842;2023-07-13T01:43:34;22.60;84.30
17697;DHT22;8967;47.984;7.842;2023-07-13T01:46:00;22.60;84.40
17697;DHT22;8967;47.984;7.842;2023-07-13T01:48:27;22.50;84.50
17697;DHT22;8967;47.984;7.842;2023-07-13T01:50:54;22.40;84.30
17697;DHT22;8967;47.984;7.842;2023-07-13T01:53:21;22.30;84.70
17697;DHT22;8967;47.984;7.842;2023-07-13T01:55:49;22.30;85.00
17697;DHT22;8967;47.984;7.842;2023-07-13T01:58:16;22.30;85.20
17697;DHT22;8967;47.984;7.842;2023-07-13T02:00:43;22.30;85.40
17697;DHT22;8967;47.984;7.842;2023-07-13T02:03:10;22.20;85.30
17697;DHT22;8967;47.984;7.842;2023-07-13T02:05:37;22.20;85.10
17697;DHT22;8967;47.984;7.842;2023-07-13T02:08:04;22.10;85.20
17697;DHT22;8967;47.984;7.842;2023-07-13T02:10:31;22.10;85.50
17697;DHT22;8967;47.984;7.842;2023-07-13T02:12:59;22.00;86.60
17697;DHT22;8967;47.984;7.842;2023-07-13T02:15:26;22.00;86.20
17697;DHT22;8967;47.984;7.842;2023-07-13T02:17:53;21.90;86.60
17697;DHT22;8967;47.984;7.842;2023-07-13T02:20:20;21.90;86.90
17697;DHT22;8967;47.984;7.842;2023-07-13T02:22:47;21.80;87.00
17697;DHT22;8967;47.984;7.842;2023-07-13T02:25:14;21.80;87.40
17697;DHT22;8967;47.984;7.842;2023-07-13T02:27:40;21.80;87.40
17697;DHT22;8967;47.984;7.842;2023-07-13T02:30:11;21.70;87.10
17697;DHT22;8967;47.984;7.842;2023-07-13T02:32:40;21.70;87.60
17697;DHT22;8967;47.984;7.842;2023-07-13T02:35:09;21.70;87.90
17697;DHT22;8967;47.984;7.842;2023-07-13T02:37:37;21.70;87.00
17697;DHT22;8967;47.984;7.842;2023-07-13T02:40:05;21.70;86.70
17697;DHT22;8967;47.984;7.842;2023-07-13T02:42:35;21.60;86.40
17697;DHT22;8967;47.984;7.842;2023-07-13T02:45:02;21.60;86.50
17697;DHT22;8967;47.984;7.842;2023-07-13T02:47:32;21.60;86.60
17697;DHT22;8967;47.984;7.842;2023-07-13T02:49:59;21.50;86.80
17697;DHT22;8967;47.984;7.842;2023-07-13T02:52:26;21.50;87.00
17697;DHT22;8967;47.984;7.842;2023-07-13T02:54:53;21.50;86.80
17697;DHT22;8967;47.984;7.842;2023-07-13T02:57:20;21.50;87.20
17697;DHT22;8967;47.984;7.842;2023-07-13T02:59:49;21.40;86.90
17697;DHT22;8967;47.984;7.842;2023-07-13T03:02:19;21.40;87.20
17697;DHT22;8967;47.984;7.842;2023-07-13T03:04:47;21.40;87.50
17697;DHT22;8967;47.984;7.842;2023-07-13T03:07:14;21.40;87.40
17697;DHT22;8967;47.984;7.842;2023-07-13T03:09:45;21.40;87.70
17697;DHT22;8967;47.984;7.842;2023-07-13T03:12:15;21.30;87.40
17697;DHT22;8967;47.984;7.842;2023-07-13T03:14:42;21.30;87.70
17697;DHT22;8967;47.984;7.842;2023-07-13T03:17:09;21.30;87.70
17697;DHT22;8967;47.984;7.842;2023-07-13T03:19:40;21.20;87.70
17697;DHT22;8967;47.984;7.842;2023-07-13T03:22:08;21.20;88.00
17697;DHT22;8967;47.984;7.842;2023-07-13T03:24:37;21.20;87.60
17697;DHT22;8967;47.984;7.842;2023-07-13T03:27:05;21.10;87.80
17697;DHT22;8967;47.984;7.842;2023-07-13T03:29:35;21.10;87.50
17697;DHT22;8967;47.984;7.842;2023-07-13T03:32:02;21.00;87.70
17697;DHT22;8967;47.984;7.842;2023-07-13T03:34:31;21.00;87.60
17697;DHT22;8967;47.984;7.842;2023-07-13T03:36:58;21.00;87.90
17697;DHT22;8967;47.984;7.842;2023-07-13T03:39:27;20.90;87.50
17697;DHT22;8967;47.984;7.842;2023-07-13T03:41:56;20.90;87.90
17697;DHT22;8967;47.984;7.842;2023-07-13T03:44:23;20.90;87.70
17697;DHT22;8967;47.984;7.842;2023-07-13T03:46:55;20.90;88.20
17697;DHT22;8967;47.984;7.842;2023-07-13T03:49:23;20.90;88.00
17697;DHT22;8967;47.984;7.842;2023-07-13T03:51:53;20.90;87.90
17697;DHT22;8967;47.984;7.842;2023-07-13T03:54:19;20.80;87.90
17697;DHT22;8967;47.984;7.842;2023-07-13T03:56:50;20.80;88.30
17697;DHT22;8967;47.984;7.842;2023-07-13T03:59:18;20.70;88.40
17697;DHT22;8967;47.984;7.842;2023-07-13T04:01:45;20.70;88.50
17697;DHT22;8967;47.984;7.842;2023-07-13T04:04:12;20.60;89.20
17697;DHT22;8967;47.984;7.842;2023-07-13T04:06:43;20.60;89.30
17697;DHT22;8967;47.984;7.842;2023-07-13T04:09:12;20.60;89.20
17697;DHT22;8967;47.984;7.842;2023-07-13T04:11:41;20.60;89.30
17697;DHT22;8967;47.984;7.842;2023-07-13T04:14:10;20.60;89.20
17697;DHT22;8967;47.984;7.842;2023-07-13T04:16:37;20.60;88.90
17697;DHT22;8967;47.984;7.842;2023-07-13T04:19:04;20.60;89.30
17697;DHT22;8967;47.984;7.842;2023-07-13T04:21:31;20.60;89.40
17697;DHT22;8967;47.984;7.842;2023-07-13T04:23:58;20.50;89.70
17697;DHT22;8967;47.984;7.842;2023-07-13T04:26:25;20.60;89.80
17697;DHT22;8967;47.984;7.842;2023-07-13T04:28:52;20.60;90.10
17697;DHT22;8967;47.984;7.842;2023-07-13T04:31:21;20.60;89.90
17697;DHT22;8967;47.984;7.842;2023-07-13T04:33:48;20.50;89.90
17697;DHT22;8967;47.984;7.842;2023-07-13T04:36:16;20.50;90.00
17697;DHT22;8967;47.984;7.842;2023-07-13T04:38:43;20.50;90.00
17697;DHT22;8967;47.984;7.842;2023-07-13T04:41:10;20.50;90.10
17697;DHT22;8967;47.984;7.842;2023-07-13T04:43:37;20.50;90.20
17697;DHT22;8967;47.984;7.842;2023-07-13T04:46:05;20.50;90.10
17697;DHT22;8967;47.984;7.842;2023-07-13T04:48:34;20.50;90.20
17697;DHT22;8967;47.984;7.842;2023-07-13T04:51:01;20.50;90.10
17697;DHT22;8967;47.984;7.842;2023-07-13T04:53:29;20.40;90.10
17697;DHT22;8967;47.984;7.842;2023-07-13T04:55:56;20.50;90.30
17697;DHT22;8967;47.984;7.842;2023-07-13T04:58:24;20.50;90.30
17697;DHT22;8967;47.984;7.842;2023-07-13T05:00:51;20.50;90.30
17697;DHT22;8967;47.984;7.842;2023-07-13T05:03:18;20.50;90.50
17697;DHT22;8967;47.984;7.842;2023-07-13T05:05:55;20.50;90.50
17697;DHT22;8967;47.984;7.842;2023-07-13T05:08:22;20.40;90.50
17697;DHT22;8967;47.984;7.842;2023-07-13T05:10:51;20.50;90.70
17697;DHT22;8967;47.984;7.842;2023-07-13T05:13:18;20.50;91.10
17697;DHT22;8967;47.984;7.842;2023-07-13T05:15:47;20.60;90.70
17697;DHT22;8967;47.984;7.842;2023-07-13T05:18:13;20.60;90.70
17697;DHT22;8967;47.984;7.842;2023-07-13T05:20:40;20.60;90.80
17697;DHT22;8967;47.984;7.842;2023-07-13T05:23:09;20.60;90.60
17697;DHT22;8967;47.984;7.842;2023-07-13T05:25:36;20.60;90.70
17697;DHT22;8967;47.984;7.842;2023-07-13T05:28:02;20.60;90.70
17697;DHT22;8967;47.984;7.842;2023-07-13T05:30:29;20.70;90.80
17697;DHT22;8967;47.984;7.842;2023-07-13T05:32:56;20.70;90.90
17697;DHT22;8967;47.984;7.842;2023-07-13T05:35:23;20.70;90.60
17697;DHT22;8967;47.984;7.842;2023-07-13T05:37:50;20.70;90.60
17697;DHT22;8967;47.984;7.842;2023-07-13T05:40:18;20.80;90.50
17697;DHT22;8967;47.984;7.842;2023-07-13T05:42:45;20.70;90.40
17697;DHT22;8967;47.984;7.842;2023-07-13T05:45:12;20.70;90.30
17697;DHT22;8967;47.984;7.842;2023-07-13T05:47:39;20.70;90.10
17697;DHT22;8967;47.984;7.842;2023-07-13T05:50:06;20.70;90.10
17697;DHT22;8967;47.984;7.842;2023-07-13T05:52:33;20.70;90.00
17697;DHT22;8967;47.984;7.842;2023-07-13T05:55:00;20.80;90.00
17697;DHT22;8967;47.984;7.842;2023-07-13T05:57:32;20.80;89.90
17697;DHT22;8967;47.984;7.842;2023-07-13T05:59:59;20.80;89.70
17697;DHT22;8967;47.984;7.842;2023-07-13T06:02:25;20.80;89.30
17697;DHT22;8967;47.984;7.842;2023-07-13T06:04:55;20.80;88.70
17697;DHT22;8967;47.984;7.842;2023-07-13T06:07:22;20.80;88.00
17697;DHT22;8967;47.984;7.842;2023-07-13T06:09:49;20.80;87.90
17697;DHT22;8967;47.984;7.842;2023-07-13T06:12:15;20.80;88.20
17697;DHT22;8967;47.984;7.842;2023-07-13T06:14:46;20.80;88.20
17697;DHT22;8967;47.984;7.842;2023-07-13T06:17:13;20.90;88.90
17697;DHT22;8967;47.984;7.842;2023-07-13T06:19:40;20.90;88.70
17697;DHT22;8967;47.984;7.842;2023-07-13T06:22:07;20.90;88.60
17697;DHT22;8967;47.984;7.842;2023-07-13T06:24:33;21.00;88.50
17697;DHT22;8967;47.984;7.842;2023-07-13T06:27:00;21.00;87.50
17697;DHT22;8967;47.984;7.842;2023-07-13T06:29:30;21.00;87.20
17697;DHT22;8967;47.984;7.842;2023-07-13T06:32:01;21.00;86.80
17697;DHT22;8967;47.984;7.842;2023-07-13T06:34:28;21.00;87.00
17697;DHT22;8967;47.984;7.842;2023-07-13T06:36:55;21.10;87.10
17697;DHT22;8967;47.984;7.842;2023-07-13T06:39:24;21.10;86.90
17697;DHT22;8967;47.984;7.842;2023-07-13T06:41:51;21.20;87.00
17697;DHT22;8967;47.984;7.842;2023-07-13T06:44:17;21.20;86.90
17697;DHT22;8967;47.984;7.842;2023-07-13T06:46:44;21.30;86.80
17697;DHT22;8967;47.984;7.842;2023-07-13T06:49:13;21.30;86.70
17697;DHT22;8967;47.984;7.842;2023-07-13T06:51:39;21.30;86.80
17697;DHT22;8967;47.984;7.842;2023-07-13T06:54:06;21.30;86.60
17697;DHT22;8967;47.984;7.842;2023-07-13T06:56:33;21.40;86.50
17697;DHT22;8967;47.984;7.842;2023-07-13T06:59:00;21.40;86.40
17697;DHT22;8967;47.984;7.842;2023-07-13T07:01:27;21.50;86.40
17697;DHT22;8967;47.984;7.842;2023-07-13T07:03:54;21.50;86.30
17697;DHT22;8967;47.984;7.842;2023-07-13T07:06:23;21.50;85.90
17697;DHT22;8967;47.984;7.842;2023-07-13T07:08:51;21.50;85.50
17697;DHT22;8967;47.984;7.842;2023-07-13T07:11:19;21.60;85.00
17697;DHT22;8967;47.984;7.842;2023-07-13T07:13:48;21.60;84.30
17697;DHT22;8967;47.984;7.842;2023-07-13T07:16:15;21.60;84.00
17697;DHT22;8967;47.984;7.842;2023-07-13T07:18:41;21.60;83.60
17697;DHT22;8967;47.984;7.842;2023-07-13T07:21:08;21.60;83.60
17697;DHT22;8967;47.984;7.842;2023-07-13T07:23:37;21.70;83.20
17697;DHT22;8967;47.984;7.842;2023-07-13T07:26:04;21.70;83.30
17697;DHT22;8967;47.984;7.842;2023-07-13T07:28:33;21.70;83.20
17697;DHT22;8967;47.984;7.842;2023-07-13T07:31:00;21.80;83.10
17697;DHT22;8967;47.984;7.842;2023-07-13T07:33:27;21.80;83.50
17697;DHT22;8967;47.984;7.842;2023-07-13T07:35:54;21.80;82.50
17697;DHT22;8967;47.984;7.842;2023-07-13T07:38:21;21.80;82.80
17697;DHT22;8967;47.984;7.842;2023-07-13T07:40:49;21.90;83.30
17697;DHT22;8967;47.984;7.842;2023-07-13T07:43:16;22.00;83.80
17697;DHT22;8967;47.984;7.842;2023-07-13T07:45:44;22.00;84.00
17697;DHT22;8967;47.984;7.842;2023-07-13T07:48:13;22.10;84.20
17697;DHT22;8967;47.984;7.842;2023-07-13T07:50:40;22.10;84.20
17697;DHT22;8967;47.984;7.842;2023-07-13T07:53:07;22.20;84.40
17697;DHT22;8967;47.984;7.842;2023-07-13T07:55:36;22.20;84.40
17697;DHT22;8967;47.984;7.842;2023-07-13T07:58:07;22.20;84.10
17697;DHT22;8967;47.984;7.842;2023-07-13T08:00:34;22.30;84.20
17697;DHT22;8967;47.984;7.842;2023-07-13T08:03:01;22.30;84.20
17697;DHT22;8967;47.984;7.842;2023-07-13T08:05:30;22.40;84.00
17697;DHT22;8967;47.984;7.842;2023-07-13T08:07:57;22.50;83.10
17697;DHT22;8967;47.984;7.842;2023-07-13T08:10:24;22.60;83.00
17697;DHT22;8967;47.984;7.842;2023-07-13T08:12:51;22.60;82.80
17697;DHT22;8967;47.984;7.842;2023-07-13T08:15:20;22.60;82.60
17697;DHT22;8967;47.984;7.842;2023-07-13T08:17:48;22.70;82.60
17697;DHT22;8967;47.984;7.842;2023-07-13T08:20:15;22.70;82.20
17697;DHT22;8967;47.984;7.842;2023-07-13T08:22:42;22.80;82.10
17697;DHT22;8967;47.984;7.842;2023-07-13T08:25:09;22.90;82.00
17697;DHT22;8967;47.984;7.842;2023-07-13T08:27:38;22.90;81.90
17697;DHT22;8967;47.984;7.842;2023-07-13T08:30:06;22.90;81.80
17697;DHT22;8967;47.984;7.842;2023-07-13T08:32:36;23.00;81.70
17697;DHT22;8967;47.984;7.842;2023-07-13T08:35:04;23.00;81.40
17697;DHT22;8967;47.984;7.842;2023-07-13T08:37:31;23.10;81.10
17697;DHT22;8967;47.984;7.842;2023-07-13T08:39:58;23.10;80.00
17697;DHT22;8967;47.984;7.842;2023-07-13T08:42:33;23.20;79.70
17697;DHT22;8967;47.984;7.842;2023-07-13T08:45:17;23.30;78.50
17697;DHT22;8967;47.984;7.842;2023-07-13T08:47:54;23.30;78.00
17697;DHT22;8967;47.984;7.842;2023-07-13T08:50:26;23.30;77.20
17697;DHT22;8967;47.984;7.842;2023-07-13T08:52:55;23.40;76.30
17697;DHT22;8967;47.984;7.842;2023-07-13T08:55:27;23.50;75.70
17697;DHT22;8967;47.984;7.842;2023-07-13T08:58:00;23.50;75.50
17697;DHT22;8967;47.984;7.842;2023-07-13T09:00:42;23.50;75.50
17697;DHT22;8967;47.984;7.842;2023-07-13T09:03:18;23.60;75.90
17697;DHT22;8967;47.984;7.842;2023-07-13T09:05:52;23.60;76.10
17697;DHT22;8967;47.984;7.842;2023-07-13T09:08:33;23.70;76.10
17697;DHT22;8967;47.984;7.842;2023-07-13T09:11:11;23.70;75.10
17697;DHT22;8967;47.984;7.842;2023-07-13T09:13:46;23.70;74.40
17697;DHT22;8967;47.984;7.842;2023-07-13T09:16:17;23.80;74.50
17697;DHT22;8967;47.984;7.842;2023-07-13T09:18:49;23.90;74.20
17697;DHT22;8967;47.984;7.842;2023-07-13T09:21:21;23.80;72.90
17697;DHT22;8967;47.984;7.842;2023-07-13T09:23:53;23.90;72.60
17697;DHT22;8967;47.984;7.842;2023-07-13T09:26:23;23.90;72.60
17697;DHT22;8967;47.984;7.842;2023-07-13T09:28:53;23.90;73.10
17697;DHT22;8967;47.984;7.842;2023-07-13T09:31:26;23.90;73.00
17697;DHT22;8967;47.984;7.842;2023-07-13T09:33:57;23.90;73.00
17697;DHT22;8967;47.984;7.842;2023-07-13T09:36:26;23.90;72.30
17697;DHT22;8967;47.984;7.842;2023-07-13T09:38:59;24.00;72.50
17697;DHT22;8967;47.984;7.842;2023-07-13T09:41:36;24.00;72.10
17697;DHT22;8967;47.984;7.842;2023-07-13T09:44:08;24.00;71.30
17697;DHT22;8967;47.984;7.842;2023-07-13T09:46:36;24.00;70.90
17697;DHT22;8967;47.984;7.842;2023-07-13T09:49:05;24.00;70.30
17697;DHT22;8967;47.984;7.842;2023-07-13T09:51:34;24.00;70.50
17697;DHT22;8967;47.984;7.842;2023-07-13T09:54:01;24.10;70.80
17697;DHT22;8967;47.984;7.842;2023-07-13T09:56:29;24.10;70.00
17697;DHT22;8967;47.984;7.842;2023-07-13T09:58:56;24.10;70.30
17697;DHT22;8967;47.984;7.842;2023-07-13T10:01:35;24.20;70.50
17697;DHT22;8967;47.984;7.842;2023-07-13T10:04:12;24.20;70.80
17697;DHT22;8967;47.984;7.842;2023-07-13T10:06:40;24.20;70.70
17697;DHT22;8967;47.984;7.842;2023-07-13T10:09:09;24.20;70.60
17697;DHT22;8967;47.984;7.842;2023-07-13T10:11:39;24.20;70.70
17697;DHT22;8967;47.984;7.842;2023-07-13T10:14:11;24.30;70.90
17697;DHT22;8967;47.984;7.842;2023-07-13T10:16:39;24.30;69.80
17697;DHT22;8967;47.984;7.842;2023-07-13T10:19:13;24.30;69.60
17697;DHT22;8967;47.984;7.842;2023-07-13T10:21:49;24.30;70.00
17697;DHT22;8967;47.984;7.842;2023-07-13T10:24:20;24.30;69.30
17697;DHT22;8967;47.984;7.842;2023-07-13T10:26:52;24.30;69.70
17697;DHT22;8967;47.984;7.842;2023-07-13T10:29:23;24.30;68.80
17697;DHT22;8967;47.984;7.842;2023-07-13T10:31:51;24.40;68.80
17697;DHT22;8967;47.984;7.842;2023-07-13T10:34:20;24.40;68.70
17697;DHT22;8967;47.984;7.842;2023-07-13T10:36:48;24.40;68.60
17697;DHT22;8967;47.984;7.842;2023-07-13T10:39:27;24.40;68.40
17697;DHT22;8967;47.984;7.842;2023-07-13T10:42:00;24.40;67.40
17697;DHT22;8967;47.984;7.842;2023-07-13T10:44:31;24.40;66.70
17697;DHT22;8967;47.984;7.842;2023-07-13T10:47:00;24.40;66.60
17697;DHT22;8967;47.984;7.842;2023-07-13T10:49:31;24.50;66.60
17697;DHT22;8967;47.984;7.842;2023-07-13T10:51:58;24.50;66.80
17697;DHT22;8967;47.984;7.842;2023-07-13T10:54:31;24.50;66.80
17697;DHT22;8967;47.984;7.842;2023-07-13T10:57:24;24.60;66.70
17697;DHT22;8967;47.984;7.842;2023-07-13T11:00:14;24.60;66.90
17697;DHT22;8967;47.984;7.842;2023-07-13T11:02:41;24.60;66.20
17697;DHT22;8967;47.984;7.842;2023-07-13T11:05:25;24.60;65.30
17697;DHT22;8967;47.984;7.842;2023-07-13T11:07:55;24.60;64.00
17697;DHT22;8967;47.984;7.842;2023-07-13T11:10:48;24.60;63.50
17697;DHT22;8967;47.984;7.842;2023-07-13T11:13:57;24.60;63.10
17697;DHT22;8967;47.984;7.842;2023-07-13T11:16:41;24.60;62.90
17697;DHT22;8967;47.984;7.842;2023-07-13T11:19:28;24.60;63.50
17697;DHT22;8967;47.984;7.842;2023-07-13T11:22:12;24.60;63.50
17697;DHT22;8967;47.984;7.842;2023-07-13T11:24:56;24.60;63.30
17697;DHT22;8967;47.984;7.842;2023-07-13T11:27:40;24.60;64.00
17697;DHT22;8967;47.984;7.842;2023-07-13T11:30:30;24.60;64.40
17697;DHT22;8967;47.984;7.842;2023-07-13T11:33:11;24.60;64.60
17697;DHT22;8967;47.984;7.842;2023-07-13T11:35:46;24.60;64.00
17697;DHT22;8967;47.984;7.842;2023-07-13T11:38:20;24.60;63.80
17697;DHT22;8967;47.984;7.842;2023-07-13T11:40:50;24.70;64.20
17697;DHT22;8967;47.984;7.842;2023-07-13T11:43:20;24.60;64.50
17697;DHT22;8967;47.984;7.842;2023-07-13T11:45:51;24.70;64.90
17697;DHT22;8967;47.984;7.842;2023-07-13T11:48:23;24.70;65.10
17697;DHT22;8967;47.984;7.842;2023-07-13T11:50:53;24.70;64.70
17697;DHT22;8967;47.984;7.842;2023-07-13T11:53:25;24.70;64.70
17697;DHT22;8967;47.984;7.842;2023-07-13T11:55:55;24.70;65.00
17697;DHT22;8967;47.984;7.842;2023-07-13T11:58:25;24.80;65.30
17697;DHT22;8967;47.984;7.842;2023-07-13T12:00:58;24.80;64.60
17697;DHT22;8967;47.984;7.842;2023-07-13T12:03:28;24.80;64.50
17697;DHT22;8967;47.984;7.842;2023-07-13T12:05:57;24.80;64.70
17697;DHT22;8967;47.984;7.842;2023-07-13T12:08:29;24.90;64.40
17697;DHT22;8967;47.984;7.842;2023-07-13T12:11:00;25.00;64.50
17697;DHT22;8967;47.984;7.842;2023-07-13T12:13:35;25.00;64.50
17697;DHT22;8967;47.984;7.842;2023-07-13T12:16:25;25.10;64.10
17697;DHT22;8967;47.984;7.842;2023-07-13T12:18:53;25.20;63.70
17697;DHT22;8967;47.984;7.842;2023-07-13T12:21:26;25.20;63.20
17697;DHT22;8967;47.984;7.842;2023-07-13T12:23:55;25.20;63.40
17697;DHT22;8967;47.984;7.842;2023-07-13T12:26:22;25.20;63.40
17697;DHT22;8967;47.984;7.842;2023-07-13T12:28:52;25.20;63.30
17697;DHT22;8967;47.984;7.842;2023-07-13T12:31:30;25.20;62.90
17697;DHT22;8967;47.984;7.842;2023-07-13T12:34:00;25.20;62.90
17697;DHT22;8967;47.984;7.842;2023-07-13T12:36:31;25.20;62.60
17697;DHT22;8967;47.984;7.842;2023-07-13T12:39:06;25.30;62.50
17697;DHT22;8967;47.984;7.842;2023-07-13T12:41:37;25.30;62.20
17697;DHT22;8967;47.984;7.842;2023-07-13T12:44:07;25.30;62.50
17697;DHT22;8967;47.984;7.842;2023-07-13T12:46:35;25.30;61.40
17697;DHT22;8967;47.984;7.842;2023-07-13T12:49:06;25.30;61.00
17697;DHT22;8967;47.984;7.842;2023-07-13T12:51:33;25.30;61.10
17697;DHT22;8967;47.984;7.842;2023-07-13T12:54:15;25.30;62.20
17697;DHT22;8967;47.984;7.842;2023-07-13T12:56:43;25.30;61.70
17697;DHT22;8967;47.984;7.842;2023-07-13T12:59:17;25.30;61.70
17697;DHT22;8967;47.984;7.842;2023-07-13T13:01:46;25.30;61.20
17697;DHT22;8967;47.984;7.842;2023-07-13T13:04:15;25.30;61.10
17697;DHT22;8967;47.984;7.842;2023-07-13T13:06:49;25.30;61.50
17697;DHT22;8967;47.984;7.842;2023-07-13T13:09:28;25.30;61.20
17697;DHT22;8967;47.984;7.842;2023-07-13T13:11:58;25.30;61.40
17697;DHT22;8967;47.984;7.842;2023-07-13T13:14:25;25.40;61.40
17697;DHT22;8967;47.984;7.842;2023-07-13T13:16:52;25.40;61.70
17697;DHT22;8967;47.984;7.842;2023-07-13T13:19:22;25.40;61.60
17697;DHT22;8967;47.984;7.842;2023-07-13T13:21:50;25.40;61.60
17697;DHT22;8967;47.984;7.842;2023-07-13T13:24:20;25.40;61.80
17697;DHT22;8967;47.984;7.842;2023-07-13T13:26:49;25.40;61.50
17697;DHT22;8967;47.984;7.842;2023-07-13T13:29:17;25.40;61.50
17697;DHT22;8967;47.984;7.842;2023-07-13T13:31:45;25.40;61.90
17697;DHT22;8967;47.984;7.842;2023-07-13T13:34:14;25.40;60.90
17697;DHT22;8967;47.984;7.842;2023-07-13T13:36:42;25.40;60.40
17697;DHT22;8967;47.984;7.842;2023-07-13T13:39:23;25.40;60.50
17697;DHT22;8967;47.984;7.842;2023-07-13T13:41:52;25.40;60.50
17697;DHT22;8967;47.984;7.842;2023-07-13T13:44:22;25.40;60.90
17697;DHT22;8967;47.984;7.842;2023-07-13T13:46:54;25.40;61.40
17697;DHT22;8967;47.984;7.842;2023-07-13T13:49:24;25.40;61.90
17697;DHT22;8967;47.984;7.842;2023-07-13T13:51:54;25.50;62.20
17697;DHT22;8967;47.984;7.842;2023-07-13T13:54:22;25.40;62.20
17697;DHT22;8967;47.984;7.842;2023-07-13T13:56:52;25.40;62.20
17697;DHT22;8967;47.984;7.842;2023-07-13T13:59:19;25.40;62.20
17697;DHT22;8967;47.984;7.842;2023-07-13T14:01:47;25.30;61.90
17697;DHT22;8967;47.984;7.842;2023-07-13T14:04:18;25.30;62.40
17697;DHT22;8967;47.984;7.842;2023-07-13T14:06:45;25.30;62.50
17697;DHT22;8967;47.984;7.842;2023-07-13T14:09:14;25.30;62.60
17697;DHT22;8967;47.984;7.842;2023-07-13T14:11:42;25.30;63.00
17697;DHT22;8967;47.984;7.842;2023-07-13T14:14:14;25.30;62.90
17697;DHT22;8967;47.984;7.842;2023-07-13T14:16:42;25.30;62.80
17697;DHT22;8967;47.984;7.842;2023-07-13T14:19:12;25.20;62.40
17697;DHT22;8967;47.984;7.842;2023-07-13T14:21:39;25.20;62.50
17697;DHT22;8967;47.984;7.842;2023-07-13T14:24:06;25.20;62.30
17697;DHT22;8967;47.984;7.842;2023-07-13T14:26:37;25.20;62.10
17697;DHT22;8967;47.984;7.842;2023-07-13T14:29:10;25.20;62.00
17697;DHT22;8967;47.984;7.842;2023-07-13T14:31:39;25.20;62.40
17697;DHT22;8967;47.984;7.842;2023-07-13T14:34:07;25.10;62.30
17697;DHT22;8967;47.984;7.842;2023-07-13T14:36:36;25.20;62.20
17697;DHT22;8967;47.984;7.842;2023-07-13T14:39:11;25.10;62.30
17697;DHT22;8967;47.984;7.842;2023-07-13T14:41:39;25.10;62.10
17697;DHT22;8967;47.984;7.842;2023-07-13T14:44:11;25.10;61.80
17697;DHT22;8967;47.984;7.842;2023-07-13T14:46:39;25.10;62.10
17697;DHT22;8967;47.984;7.842;2023-07-13T14:49:15;25.10;61.80
17697;DHT22;8967;47.984;7.842;2023-07-13T14:51:46;25.10;62.10
17697;DHT22;8967;47.984;7.842;2023-07-13T14:54:13;25.00;62.20
17697;DHT22;8967;47.984;7.842;2023-07-13T14:56:40;25.00;62.30
17697;DHT22;8967;47.984;7.842;2023-07-13T14:59:07;25.00;62.40
17697;DHT22;8967;47.984;7.842;2023-07-13T15:01:34;25.00;62.70
17697;DHT22;8967;47.984;7.842;2023-07-13T15:04:06;25.00;62.90
17697;DHT22;8967;47.984;7.842;2023-07-13T15:06:53;25.00;62.80
17697;DHT22;8967;47.984;7.842;2023-07-13T15:09:20;25.00;62.40
17697;DHT22;8967;47.984;7.842;2023-07-13T15:11:47;25.00;62.60
17697;DHT22;8967;47.984;7.842;2023-07-13T15:14:16;25.00;62.50
17697;DHT22;8967;47.984;7.842;2023-07-13T15:16:46;25.00;62.80
17697;DHT22;8967;47.984;7.842;2023-07-13T15:19:15;25.00;62.90
17697;DHT22;8967;47.984;7.842;2023-07-13T15:21:42;25.00;63.10
17697;DHT22;8967;47.984;7.842;2023-07-13T15:24:10;25.10;63.10
17697;DHT22;8967;47.984;7.842;2023-07-13T15:26:37;25.10;63.40
17697;DHT22;8967;47.984;7.842;2023-07-13T15:29:04;25.10;63.00
17697;DHT22;8967;47.984;7.842;2023-07-13T15:31:32;25.10;62.90
17697;DHT22;8967;47.984;7.842;2023-07-13T15:34:09;25.10;63.10
17697;DHT22;8967;47.984;7.842;2023-07-13T15:36:37;25.10;63.00
17697;DHT22;8967;47.984;7.842;2023-07-13T15:39:05;25.10;62.40
17697;DHT22;8967;47.984;7.842;2023-07-13T15:41:32;25.10;62.40
17697;DHT22;8967;47.984;7.842;2023-07-13T15:44:22;25.10;62.40
17697;DHT22;8967;47.984;7.842;2023-07-13T15:46:47;25.00;62.20
17697;DHT22;8967;47.984;7.842;2023-07-13T15:49:15;25.00;62.40
17697;DHT22;8967;47.984;7.842;2023-07-13T15:51:43;25.00;62.30
17697;DHT22;8967;47.984;7.842;2023-07-13T15:54:14;25.00;62.10
17697;DHT22;8967;47.984;7.842;2023-07-13T15:56:41;25.00;62.30
17697;DHT22;8967;47.984;7.842;2023-07-13T15:59:11;25.00;62.40
17697;DHT22;8967;47.984;7.842;2023-07-13T16:01:40;25.00;63.20